createdAt,value
2022-08-02T00:00:33.520Z,20.70
2022-08-02T00:03:02.168Z,20.70
2022-08-02T00:05:28.795Z,20.70
2022-08-02T00:08:01.057Z,20.70
2022-08-02T00:10:32.835Z,20.60
2022-08-02T00:12:59.468Z,20.60
2022-08-02T00:15:27.070Z,20.60
2022-08-02T00:17:53.678Z,20.50
2022-08-02T00:20:20.331Z,20.50
2022-08-02T00:22:46.965Z,20.50
2022-08-02T00:25:13.618Z,20.50
2022-08-02T00:27:40.238Z,20.50
2022-08-02T00:30:07.501Z,20.40
2022-08-02T00:32:34.119Z,20.40
2022-08-02T00:35:00.728Z,20.40
2022-08-02T00:37:27.340Z,20.40
2022-08-02T00:39:55.482Z,20.40
2022-08-02T00:42:22.079Z,20.30
2022-08-02T00:44:48.830Z,20.40
2022-08-02T00:47:19.574Z,20.40
2022-08-02T00:49:46.818Z,20.40
2022-08-02T00:52:13.747Z,20.30
2022-08-02T00:54:40.668Z,20.30
2022-08-02T00:57:07.551Z,20.20
2022-08-02T00:59:41.313Z,20.20
2022-08-02T01:02:08.770Z,20.20
2022-08-02T01:04:35.458Z,20.20
2022-08-02T01:07:12.151Z,20.20
2022-08-02T01:09:44.668Z,20.20
2022-08-02T01:12:12.111Z,20.10
2022-08-02T01:14:41.816Z,20.10
2022-08-02T01:17:41.015Z,20.10
2022-08-02T01:20:26.371Z,20.10
2022-08-02T01:23:16.247Z,20.10
2022-08-02T01:26:17.994Z,20.00
2022-08-02T01:28:57.223Z,20.00
2022-08-02T01:31:32.546Z,20.00
2022-08-02T01:34:16.752Z,20.00
2022-08-02T01:36:48.183Z,20.00
2022-08-02T01:39:26.867Z,20.00
2022-08-02T01:42:00.950Z,20.00
2022-08-02T01:44:31.709Z,20.10
2022-08-02T01:47:03.460Z,20.10
2022-08-02T01:49:32.617Z,20.00
2022-08-02T01:52:19.833Z,20.00
2022-08-02T01:54:59.362Z,20.00
2022-08-02T01:57:31.175Z,19.90
2022-08-02T02:00:00.324Z,19.90
2022-08-02T02:02:31.871Z,19.90
2022-08-02T02:05:01.193Z,19.90
2022-08-02T02:07:31.795Z,19.80
2022-08-02T02:10:00.664Z,19.90
2022-08-02T02:12:28.535Z,19.80
2022-08-02T02:14:56.811Z,19.90
2022-08-02T02:17:54.840Z,19.80
2022-08-02T02:20:20.773Z,19.80
2022-08-02T02:22:49.827Z,19.80
2022-08-02T02:25:19.889Z,19.80
2022-08-02T02:28:07.291Z,19.80
2022-08-02T02:30:38.888Z,19.80
2022-08-02T02:33:07.630Z,19.80
2022-08-02T02:35:36.940Z,19.80
2022-08-02T02:38:09.397Z,19.90
2022-08-02T02:40:38.457Z,20.00
2022-08-02T02:43:08.116Z,19.90
2022-08-02T02:45:36.656Z,19.90
2022-08-02T02:48:05.817Z,19.90
2022-08-02T02:50:33.865Z,19.90
2022-08-02T02:53:01.473Z,19.80
2022-08-02T02:55:28.926Z,19.80
2022-08-02T02:57:56.340Z,19.80
2022-08-02T03:00:44.326Z,19.80
2022-08-02T03:03:12.939Z,19.80
2022-08-02T03:05:39.657Z,19.70
2022-08-02T03:08:06.474Z,19.80
2022-08-02T03:10:34.236Z,19.80
2022-08-02T03:13:01.361Z,19.80
2022-08-02T03:15:29.357Z,19.80
2022-08-02T03:17:56.109Z,19.80
2022-08-02T03:20:22.874Z,19.80
2022-08-02T03:22:50.267Z,19.80
2022-08-02T03:25:18.533Z,19.80
2022-08-02T03:27:45.520Z,19.70
2022-08-02T03:30:13.204Z,19.70
2022-08-02T03:32:42.710Z,19.70
2022-08-02T03:35:11.774Z,19.70
2022-08-02T03:37:38.955Z,19.80
2022-08-02T03:40:10.937Z,19.80
2022-08-02T03:42:40.107Z,19.80
2022-08-02T03:45:09.217Z,19.80
2022-08-02T03:47:39.406Z,19.80
2022-08-02T03:50:11.268Z,19.80
2022-08-02T03:52:40.532Z,19.90
2022-08-02T03:55:08.306Z,19.80
2022-08-02T03:57:38.755Z,19.90
2022-08-02T04:00:06.997Z,19.90
2022-08-02T04:02:39.100Z,19.90
2022-08-02T04:05:06.189Z,19.80
2022-08-02T04:08:02.733Z,19.80
2022-08-02T04:10:19.496Z,19.80
2022-08-02T04:12:46.208Z,19.80
2022-08-02T04:15:14.791Z,19.80
2022-08-02T04:17:47.972Z,19.80
2022-08-02T04:20:28.502Z,19.80
2022-08-02T04:23:09.859Z,19.80
2022-08-02T04:25:40.064Z,19.80
2022-08-02T04:28:17.107Z,19.80
2022-08-02T04:30:49.656Z,19.70
2022-08-02T04:33:16.966Z,19.70
2022-08-02T04:35:44.838Z,19.70
2022-08-02T04:38:14.639Z,19.70
2022-08-02T04:40:49.611Z,19.80
2022-08-02T04:43:16.343Z,19.80
2022-08-02T04:45:44.441Z,19.70
2022-08-02T04:48:11.089Z,19.70
2022-08-02T04:50:40.049Z,19.80
2022-08-02T04:53:06.863Z,19.70
2022-08-02T04:55:33.525Z,19.80
2022-08-02T04:58:03.733Z,19.80
2022-08-02T05:00:31.106Z,19.70
2022-08-02T05:02:59.179Z,19.70
2022-08-02T05:05:26.242Z,19.60
2022-08-02T05:07:53.199Z,19.60
2022-08-02T05:10:20.023Z,19.70
2022-08-02T05:12:46.722Z,19.70
2022-08-02T05:15:16.541Z,19.60
2022-08-02T05:17:47.814Z,19.70
2022-08-02T05:20:16.497Z,19.70
2022-08-02T05:22:43.353Z,19.70
2022-08-02T05:25:11.012Z,19.60
2022-08-02T05:27:37.744Z,19.70
2022-08-02T05:30:05.595Z,19.70
2022-08-02T05:32:32.454Z,19.70
2022-08-02T05:35:01.773Z,19.70
2022-08-02T05:37:31.987Z,19.80
2022-08-02T05:39:59.246Z,19.80
2022-08-02T05:42:31.271Z,19.70
2022-08-02T05:44:58.354Z,19.80
2022-08-02T05:47:25.803Z,19.80
2022-08-02T05:49:52.635Z,19.80
2022-08-02T05:52:20.826Z,19.80
2022-08-02T05:54:55.849Z,19.80
2022-08-02T05:58:03.829Z,19.80
2022-08-02T06:00:32.552Z,19.70
2022-08-02T06:03:36.975Z,19.70
2022-08-02T06:06:12.931Z,19.70
2022-08-02T06:08:48.283Z,19.70
2022-08-02T06:11:22.121Z,19.80
2022-08-02T06:13:49.129Z,19.90
2022-08-02T06:16:16.581Z,20.00
2022-08-02T06:18:45.552Z,20.00
2022-08-02T06:22:32.097Z,20.00
2022-08-02T06:24:03.077Z,20.00
2022-08-02T06:26:30.028Z,20.00
2022-08-02T06:28:58.476Z,19.90
2022-08-02T06:31:25.571Z,19.90
2022-08-02T06:33:52.419Z,19.90
2022-08-02T06:36:29.593Z,20.00
2022-08-02T06:39:12.659Z,20.10
2022-08-02T06:41:42.193Z,20.10
2022-08-02T06:47:11.988Z,20.20
2022-08-02T06:49:51.940Z,19.90
2022-08-02T06:52:31.602Z,19.80
2022-08-02T06:55:00.407Z,19.60
2022-08-02T06:57:28.499Z,19.50
2022-08-02T06:59:55.505Z,19.50
2022-08-02T07:02:22.756Z,19.70
2022-08-02T07:04:49.583Z,19.80
2022-08-02T07:07:16.288Z,19.90
2022-08-02T07:10:00.462Z,19.90
2022-08-02T07:12:32.643Z,20.00
2022-08-02T07:15:02.160Z,20.20
2022-08-02T07:17:29.817Z,20.20
2022-08-02T07:19:57.751Z,20.20
2022-08-02T07:22:26.934Z,20.20
2022-08-02T07:24:55.592Z,20.30
2022-08-02T07:27:22.417Z,20.30
2022-08-02T07:29:49.175Z,20.40
2022-08-02T07:32:20.506Z,20.40
2022-08-02T07:34:51.228Z,20.30
2022-08-02T07:37:26.250Z,20.20
2022-08-02T07:40:13.482Z,20.00
2022-08-02T07:42:42.707Z,20.10
2022-08-02T07:45:10.065Z,20.20
2022-08-02T07:47:38.492Z,20.30
2022-08-02T07:50:07.058Z,20.20
2022-08-02T07:52:33.839Z,20.10
2022-08-02T07:55:01.149Z,20.20
2022-08-02T07:57:27.796Z,20.30
2022-08-02T07:59:54.501Z,20.40
2022-08-02T08:02:21.221Z,20.50
2022-08-02T08:04:47.922Z,20.50
2022-08-02T08:07:14.652Z,20.40
2022-08-02T08:09:45.129Z,20.10
2022-08-02T08:12:13.219Z,20.20
2022-08-02T08:14:40.140Z,20.20
2022-08-02T08:17:07.405Z,20.10
2022-08-02T08:19:34.865Z,20.20
2022-08-02T08:22:18.639Z,20.40
2022-08-02T08:24:45.394Z,20.50
2022-08-02T08:27:14.760Z,20.60
2022-08-02T08:29:42.570Z,20.60
2022-08-02T08:32:14.156Z,20.50
2022-08-02T08:34:43.225Z,20.40
2022-08-02T08:37:09.952Z,20.70
2022-08-02T08:39:56.324Z,20.80
2022-08-02T08:42:30.392Z,20.80
2022-08-02T08:44:57.906Z,20.90
2022-08-02T08:47:36.921Z,20.70
2022-08-02T08:50:06.607Z,20.50
2022-08-02T08:52:39.841Z,20.50
2022-08-02T08:55:10.512Z,20.50
2022-08-02T08:57:42.347Z,20.70
2022-08-02T09:00:12.770Z,20.80
2022-08-02T09:02:42.714Z,20.80
2022-08-02T09:05:15.158Z,20.80
2022-08-02T09:07:42.824Z,20.80
2022-08-02T09:10:41.893Z,20.80
2022-08-02T09:13:38.084Z,20.80
2022-08-02T09:16:10.953Z,21.00
2022-08-02T09:18:43.576Z,21.00
2022-08-02T09:21:10.528Z,21.10
2022-08-02T09:23:42.618Z,21.10
2022-08-02T09:26:11.869Z,21.20
2022-08-02T09:28:41.449Z,21.40
2022-08-02T09:31:09.641Z,21.50
2022-08-02T09:33:37.885Z,21.60
2022-08-02T09:36:08.386Z,21.70
2022-08-02T09:38:36.928Z,21.60
2022-08-02T09:41:20.669Z,21.60
2022-08-02T09:43:58.826Z,21.70
2022-08-02T09:46:38.088Z,21.80
2022-08-02T09:49:19.638Z,21.90
2022-08-02T09:51:49.588Z,21.80
2022-08-02T09:54:28.574Z,21.80
2022-08-02T09:56:57.792Z,21.80
2022-08-02T09:59:25.751Z,21.90
2022-08-02T10:02:01.686Z,22.00
2022-08-02T10:04:31.030Z,22.10
2022-08-02T10:07:04.086Z,22.20
2022-08-02T10:09:32.178Z,22.30
2022-08-02T10:11:59.949Z,22.20
2022-08-02T10:14:27.663Z,22.30
2022-08-02T10:16:56.460Z,22.20
2022-08-02T10:20:00.589Z,22.30
2022-08-02T10:22:12.833Z,22.30
2022-08-02T10:24:45.943Z,22.50
2022-08-02T10:27:18.827Z,22.50
2022-08-02T10:29:54.823Z,22.40
2022-08-02T10:32:29.984Z,22.60
2022-08-02T10:35:32.081Z,22.80
2022-08-02T10:38:03.218Z,22.80
2022-08-02T10:40:49.986Z,22.80
2022-08-02T10:43:31.400Z,22.70
2022-08-02T10:46:31.604Z,22.80
2022-08-02T10:52:02.677Z,22.80
2022-08-02T10:54:37.911Z,22.90
2022-08-02T10:57:30.353Z,23.00
2022-08-02T11:00:24.819Z,23.10
2022-08-02T11:02:53.119Z,22.90
2022-08-02T11:05:42.588Z,23.00
2022-08-02T11:08:21.485Z,22.90
2022-08-02T11:10:48.363Z,22.80
2022-08-02T11:13:17.558Z,22.80
2022-08-02T11:16:10.972Z,23.50
2022-08-02T11:18:44.074Z,23.70
2022-08-02T11:21:25.417Z,23.70
2022-08-02T11:23:52.731Z,23.70
2022-08-02T11:26:31.342Z,24.00
2022-08-02T11:29:04.082Z,23.60
2022-08-02T11:31:42.984Z,24.00
2022-08-02T11:34:11.364Z,23.90
2022-08-02T11:36:58.007Z,23.70
2022-08-02T11:39:24.873Z,23.80
2022-08-02T11:41:52.977Z,23.90
2022-08-02T11:44:23.496Z,24.10
2022-08-02T11:47:00.746Z,24.40
2022-08-02T11:49:28.574Z,24.00
2022-08-02T11:52:01.799Z,24.00
2022-08-02T11:54:40.089Z,23.80
2022-08-02T11:57:20.833Z,24.20
2022-08-02T11:59:51.075Z,24.40
2022-08-02T12:02:19.288Z,24.30
2022-08-02T12:04:53.481Z,24.00
2022-08-02T12:07:33.601Z,23.70
2022-08-02T12:10:09.608Z,23.50
2022-08-02T12:12:59.657Z,23.50
2022-08-02T12:15:52.678Z,23.90
2022-08-02T12:18:42.091Z,24.10
2022-08-02T12:21:23.844Z,24.30
2022-08-02T12:23:59.749Z,24.00
2022-08-02T12:26:27.405Z,23.80
2022-08-02T12:28:58.440Z,23.90
2022-08-02T12:31:56.246Z,24.30
2022-08-02T12:34:31.792Z,24.70
2022-08-02T12:37:04.386Z,24.60
2022-08-02T12:39:39.590Z,24.40
2022-08-02T12:42:08.240Z,24.60
2022-08-02T12:44:37.874Z,24.40
2022-08-02T12:47:12.041Z,24.70
2022-08-02T12:49:38.721Z,24.90
2022-08-02T12:52:20.164Z,24.70
2022-08-02T12:54:48.876Z,24.70
2022-08-02T12:57:18.722Z,24.30
2022-08-02T12:59:52.656Z,23.90
2022-08-02T13:02:21.259Z,24.00
2022-08-02T13:04:49.143Z,24.50
2022-08-02T13:07:17.261Z,24.40
2022-08-02T13:09:48.117Z,24.60
2022-08-02T13:12:15.442Z,24.50
2022-08-02T13:14:42.825Z,24.50
2022-08-02T13:17:12.611Z,24.70
2022-08-02T13:19:40.745Z,24.40
2022-08-02T13:22:08.518Z,24.10
2022-08-02T13:24:41.184Z,24.50
2022-08-02T13:27:24.176Z,24.60
2022-08-02T13:29:51.551Z,24.60
2022-08-02T13:32:18.361Z,24.70
2022-08-02T13:34:45.269Z,24.50
2022-08-02T13:37:12.223Z,24.30
2022-08-02T13:39:38.951Z,24.20
2022-08-02T13:42:06.007Z,24.30
2022-08-02T13:44:33.209Z,24.00
2022-08-02T13:47:00.902Z,24.00
2022-08-02T13:49:50.702Z,24.20
2022-08-02T13:52:14.756Z,24.20
2022-08-02T13:54:41.823Z,24.30
2022-08-02T13:57:08.557Z,24.20
2022-08-02T13:59:56.477Z,23.90
2022-08-02T14:02:22.139Z,24.10
2022-08-02T14:04:48.769Z,24.50
2022-08-02T14:07:16.085Z,24.30
2022-08-02T14:09:43.627Z,23.90
2022-08-02T14:12:11.159Z,24.10
2022-08-02T14:14:38.469Z,24.20
2022-08-02T14:17:05.502Z,23.80
2022-08-02T14:19:33.033Z,24.00
2022-08-02T14:22:10.875Z,24.40
2022-08-02T14:24:39.887Z,24.20
2022-08-02T14:27:06.633Z,24.20
2022-08-02T14:29:33.594Z,24.00
2022-08-02T14:32:00.617Z,24.30
2022-08-02T14:34:27.745Z,24.70
2022-08-02T14:36:55.942Z,24.40
2022-08-02T14:39:22.817Z,24.00
2022-08-02T14:41:59.759Z,23.70
2022-08-02T14:44:28.099Z,24.10
2022-08-02T14:46:55.544Z,24.20
2022-08-02T14:49:26.045Z,24.00
2022-08-02T14:51:57.283Z,24.20
2022-08-02T14:54:30.528Z,24.40
2022-08-02T14:57:02.474Z,24.40
2022-08-02T14:59:30.149Z,24.40
2022-08-02T15:01:56.974Z,24.50
2022-08-02T15:04:23.775Z,24.30
2022-08-02T15:06:50.627Z,24.10
2022-08-02T15:09:17.440Z,24.00
2022-08-02T15:11:47.671Z,24.10
2022-08-02T15:14:25.402Z,24.00
2022-08-02T15:16:57.089Z,23.90
2022-08-02T15:19:28.742Z,24.00
2022-08-02T15:22:12.176Z,24.20
2022-08-02T15:24:43.930Z,24.20
2022-08-02T15:27:13.456Z,24.20
2022-08-02T15:29:40.491Z,24.40
2022-08-02T15:32:07.276Z,24.50
2022-08-02T15:34:33.930Z,24.40
2022-08-02T15:37:00.659Z,24.10
2022-08-02T15:39:27.718Z,24.10
2022-08-02T15:41:54.381Z,24.30
2022-08-02T15:44:21.037Z,24.30
2022-08-02T15:46:47.767Z,24.30
2022-08-02T15:49:14.573Z,24.10
2022-08-02T15:51:41.275Z,24.10
2022-08-02T15:54:07.915Z,24.30
2022-08-02T15:56:34.696Z,24.20
2022-08-02T15:59:01.327Z,24.40
2022-08-02T16:01:32.211Z,24.30
2022-08-02T16:04:07.030Z,24.20
2022-08-02T16:06:35.140Z,24.50
2022-08-02T16:09:03.263Z,24.50
2022-08-02T16:11:30.120Z,24.40
2022-08-02T16:13:58.920Z,24.50
2022-08-02T16:16:30.829Z,24.40
2022-08-02T16:18:57.863Z,24.30
2022-08-02T16:21:24.912Z,24.20
2022-08-02T16:23:59.172Z,24.20
2022-08-02T16:26:31.338Z,24.10
2022-08-02T16:28:58.981Z,23.90
2022-08-02T16:31:25.836Z,23.80
2022-08-02T16:33:56.403Z,24.00
2022-08-02T16:36:27.227Z,24.10
2022-08-02T16:38:54.600Z,24.00
2022-08-02T16:41:21.963Z,24.00
2022-08-02T16:43:48.979Z,23.80
2022-08-02T16:46:15.717Z,23.80
2022-08-02T16:48:51.033Z,23.70
2022-08-02T16:51:18.779Z,23.70
2022-08-02T16:54:00.573Z,24.00
2022-08-02T16:56:30.758Z,23.90
2022-08-02T16:58:59.432Z,23.80
2022-08-02T17:02:01.703Z,24.00
2022-08-02T17:04:15.403Z,24.00
2022-08-02T17:06:51.686Z,23.90
2022-08-02T17:10:03.109Z,23.70
2022-08-02T17:12:07.596Z,23.50
2022-08-02T17:14:54.489Z,23.50
2022-08-02T17:17:33.789Z,23.50
2022-08-02T17:20:01.930Z,23.50
2022-08-02T17:22:28.883Z,23.60
2022-08-02T17:24:56.026Z,23.50
2022-08-02T17:27:22.869Z,23.50
2022-08-02T17:29:49.746Z,23.50
2022-08-02T17:32:18.121Z,23.40
2022-08-02T17:34:56.569Z,23.40
2022-08-02T17:37:27.195Z,23.50
2022-08-02T17:39:56.863Z,23.50
2022-08-02T17:42:24.944Z,23.50
2022-08-02T17:45:06.852Z,23.60
2022-08-02T17:47:43.359Z,23.70
2022-08-02T17:50:30.162Z,23.70
2022-08-02T17:52:57.044Z,23.70
2022-08-02T17:55:23.948Z,23.60
2022-08-02T17:57:57.389Z,23.60
2022-08-02T18:00:34.138Z,23.60
2022-08-02T18:03:06.003Z,23.60
2022-08-02T18:05:38.958Z,23.60
2022-08-02T18:08:08.235Z,23.60
2022-08-02T18:10:35.325Z,23.50
2022-08-02T18:13:02.194Z,23.60
2022-08-02T18:15:32.601Z,23.50
2022-08-02T18:18:00.336Z,23.50
2022-08-02T18:20:27.024Z,23.60
2022-08-02T18:22:58.599Z,23.60
2022-08-02T18:25:46.676Z,23.50
2022-08-02T18:28:15.286Z,23.60
2022-08-02T18:30:42.661Z,23.50
2022-08-02T18:33:58.597Z,23.60
2022-08-02T18:35:56.171Z,23.50
2022-08-02T18:38:24.784Z,23.50
2022-08-02T18:40:52.047Z,23.50
2022-08-02T18:43:25.057Z,23.50
2022-08-02T18:46:05.300Z,23.50
2022-08-02T18:48:35.123Z,23.50
2022-08-02T18:51:02.848Z,23.50
2022-08-02T18:53:41.759Z,23.50
2022-08-02T18:56:20.084Z,23.50
2022-08-02T18:58:52.246Z,23.50
2022-08-02T19:01:21.750Z,23.60
2022-08-02T19:04:00.400Z,23.60
2022-08-02T19:06:28.855Z,23.50
2022-08-02T19:09:06.106Z,23.50
2022-08-02T19:11:41.430Z,23.50
2022-08-02T19:14:14.784Z,23.50
2022-08-02T19:16:51.007Z,23.60
2022-08-02T19:19:20.290Z,23.60
2022-08-02T19:22:18.911Z,23.60
2022-08-02T19:24:33.753Z,23.50
2022-08-02T19:27:13.795Z,23.50
2022-08-02T19:29:43.339Z,23.50
2022-08-02T19:32:40.404Z,23.50
2022-08-02T19:35:19.311Z,23.50
2022-08-02T19:38:04.526Z,23.50
2022-08-02T19:40:31.264Z,23.50
2022-08-02T19:44:24.508Z,23.50
2022-08-02T19:45:50.065Z,23.40
2022-08-02T19:48:24.370Z,23.40
2022-08-02T19:50:56.194Z,23.40
2022-08-02T19:53:28.765Z,23.40
2022-08-02T19:55:58.725Z,23.40
2022-08-02T19:58:30.403Z,23.30
2022-08-02T20:00:58.850Z,23.30
2022-08-02T20:03:26.684Z,23.40
2022-08-02T20:06:13.639Z,23.30
2022-08-02T20:08:43.127Z,23.30
2022-08-02T20:11:27.693Z,23.30
2022-08-02T20:13:54.354Z,23.30
2022-08-02T20:16:28.025Z,23.30
2022-08-02T20:18:56.345Z,23.30
2022-08-02T20:21:35.942Z,23.40
2022-08-02T20:24:07.305Z,23.40
2022-08-02T20:26:35.220Z,23.40
2022-08-02T20:29:05.607Z,23.40
2022-08-02T20:31:35.513Z,23.40
2022-08-02T20:34:02.389Z,23.50
2022-08-02T20:36:29.096Z,23.50
2022-08-02T20:38:55.950Z,23.50
2022-08-02T20:41:23.457Z,23.50
2022-08-02T20:44:04.123Z,23.60
2022-08-02T20:46:30.767Z,23.50
2022-08-02T20:49:01.333Z,23.60
2022-08-02T20:51:33.642Z,23.60
2022-08-02T20:54:00.543Z,23.60
2022-08-02T20:56:29.274Z,23.60
2022-08-02T20:58:55.939Z,23.60
2022-08-02T21:01:36.797Z,23.60
2022-08-02T21:04:04.148Z,23.60
2022-08-02T21:06:31.301Z,23.60
2022-08-02T21:08:58.581Z,23.60
2022-08-02T21:11:33.473Z,23.60
2022-08-02T21:14:05.601Z,23.50
2022-08-02T21:16:34.991Z,23.60
2022-08-02T21:19:01.984Z,23.60
2022-08-02T21:21:29.682Z,23.60
2022-08-02T21:23:57.303Z,23.60
2022-08-02T21:26:28.520Z,23.60
2022-08-02T21:28:57.591Z,23.60
2022-08-02T21:31:29.967Z,23.60
2022-08-02T21:33:59.492Z,23.50
2022-08-02T21:36:33.119Z,23.60
2022-08-02T21:39:08.773Z,23.50
2022-08-02T21:41:39.099Z,23.50
2022-08-02T21:44:12.124Z,23.50
2022-08-02T21:46:38.789Z,23.60
2022-08-02T21:49:05.638Z,23.60
2022-08-02T21:51:33.934Z,23.60
2022-08-02T21:54:17.406Z,23.60
2022-08-02T21:56:53.252Z,23.60
2022-08-02T21:59:26.227Z,23.60
2022-08-02T22:01:57.684Z,23.60
2022-08-02T22:04:25.879Z,23.60
2022-08-02T22:06:53.561Z,23.60
2022-08-02T22:09:44.176Z,23.60
2022-08-02T22:12:10.340Z,23.60
2022-08-02T22:14:39.977Z,23.60
2022-08-02T22:17:08.627Z,23.60
2022-08-02T22:19:36.437Z,23.60
2022-08-02T22:22:03.203Z,23.60
2022-08-02T22:24:30.568Z,23.60
2022-08-02T22:26:57.720Z,23.60
2022-08-02T22:29:24.433Z,23.60
2022-08-02T22:31:52.077Z,23.60
2022-08-02T22:34:37.310Z,23.60
2022-08-02T22:37:05.776Z,23.60
2022-08-02T22:39:32.672Z,23.60
2022-08-02T22:42:01.374Z,23.60
2022-08-02T22:44:32.264Z,23.60
2022-08-02T22:47:06.800Z,23.60
2022-08-02T22:49:38.642Z,23.60
2022-08-02T22:52:20.034Z,23.60
2022-08-02T22:54:46.979Z,23.60
2022-08-02T22:57:13.579Z,23.60
2022-08-02T22:59:40.958Z,23.60
2022-08-02T23:02:08.841Z,23.60
2022-08-02T23:04:36.544Z,23.50
2022-08-02T23:07:03.448Z,23.50
2022-08-02T23:09:30.267Z,23.50
2022-08-02T23:11:56.988Z,23.50
2022-08-02T23:14:23.653Z,23.50
2022-08-02T23:17:08.780Z,23.60
2022-08-02T23:19:50.620Z,23.60
2022-08-02T23:22:19.275Z,23.50
2022-08-02T23:24:46.264Z,23.60
2022-08-02T23:27:12.919Z,23.60
2022-08-02T23:29:39.576Z,23.50
2022-08-02T23:32:06.488Z,23.50
2022-08-02T23:34:34.461Z,23.60
2022-08-02T23:37:03.763Z,23.50
2022-08-02T23:39:31.433Z,23.60
2022-08-02T23:41:58.396Z,23.60
2022-08-02T23:44:25.799Z,23.50
2022-08-02T23:46:53.389Z,23.50
2022-08-02T23:49:20.910Z,23.50
2022-08-02T23:51:49.017Z,23.50
2022-08-02T23:54:16.023Z,23.50
2022-08-02T23:56:43.482Z,23.50
2022-08-02T23:59:10.233Z,23.50
